메인 페이지
METAR-TAF:

METAR-TAF

공항 :

솔트레이크시티 국제공항

솔트레이크시티, 유타, 미국

위도: 40-46-41N, 경도: 111-58-10W, 고도: 1288m

현재 날씨관측

예보는 35분 전, 07:54시(UTC)에 발표되었습니다.
13kt, 순간 최대 풍속 23kt
온도 28°C
습도 28%
기압 1017 hPa
시정: 16.1km
고도 16000ft 상공 구름 조금
고도 22000ft 상공 구름 많음

METAR: KSLC 200754Z 18013G23KT 10SM FEW160 BKN220 28/08 A3002 RMK AO2 SLP097 T02780078

시각: 02:29 (08:29 UTC)

예보

예보는 3 시간 9분 전, 05:20시(UTC)에 발표되었습니다.
예보 대상 시간: 20일 06시부터 21일 12시까지 (UTC)
남남동17kt, 순간 최대 풍속 26kt
시정: 10km
고도 20000ft 상공 구름 많음
20일 0615시부터 (UTC)
남남동7kt
시정: 10km
고도 20000ft 상공 구름 많음
20일 2000시부터 (UTC)
북북서7kt
시정: 10km
고도 8000ft 상공 구름 보통
고도 15000ft 상공 구름 보통
21일 0200시부터 (UTC)
남남동10kt
시정: 10km
고도 8000ft 상공 구름 보통
고도 15000ft 상공 구름 많음
시계 내 소나기
21일 0900시부터 (UTC)
남남동8kt
시정: 10km
고도 8000ft 상공 구름 보통
고도 15000ft 상공 구름 많음

TAF: KSLC 200520Z 2006/2112 15017G26KT P6SM BKN200 FM200615 15007KT P6SM BKN200 FM202000 33007KT P6SM SCT080 SCT150 FM210200 15010KT P6SM VCSH SCT080 BKN150 FM210900 15008KT P6SM SCT080 BKN150

4,000개 이상의 공항 관측 자료 및 예보 (METAR 및 TAF 보고).

지도상에서 검색 가능한 기상관측소가 노란 점과 빨간 점으로 표시되어 있습니다.

기상관측소 명을 보려면 표시 위로 마우스를 이동하세요.

날씨 관측과 예보를 보려면 클릭하세요.

지도 변경 : 확대하려면 엑스 표시가 있는 녹색 버튼, 축소하려면 빼기 표시가 있는 녹색 버튼, 다음 페이지의 지도를 보려면 녹색 화살표를 클릭하세요.


METAR-TAF: